Rechercher aéroport 
image banner adimage banner ad
image banner ad

LI-CA02 - Aviosuperficie del Parteolla

Situé à Serdiana, Italy

ICAO - , IATA -

Données fournies par Airmate  

Information générale

Coordonnées: N39°23'59" E9°8'15"
Élévation : 433 feet MSL.
 
Voir autres Aéroports à Sardinia

Données opérationnelles

Accessible au public
Heure actuelle UTC:
Heure actuelle locale:
Météo à : LIED - Decimomannu ( 15 km )
METAR: LIED 260955Z 31022KT 9999 FEW020 SCT040 19/09 Q1009 RMK BKN VIS MIN 9999 WIND THR35 31020KT WIND THR17 32020KT BLU
TAF: TAF LIED 260800Z 2609/2618 32020G30KT 9999 FEW020 SCT030 TEMPO 2610/2614 32025G40KT
Voir NOTAMs / SUP AIP / TFR affectant cet aéroport [VIEW]
Fréquences de communication: [VIEW]

Pistes:

Identifiant RWYQFULongueur (ft)Largeur (ft)SurfaceLDA (ft)
06255998GRASS
24255998GRASS
1565665GRASS
3365665GRASS

Coordonnées de l'aéroport

Adresse: Serdiana Italy

Vue satellite de LI-CA02